sensor_id;sensor_type;location;lat;lon;timestamp;P1;durP1;ratioP1;P2;durP2;ratioP2
47545;SDS011;50104;52.002;4.688;2023-11-19T00:01:34;41.85;;;5.18;;
47545;SDS011;50104;52.002;4.688;2023-11-19T00:06:36;45.22;;;6.30;;
47545;SDS011;50104;52.002;4.688;2023-11-19T00:11:36;34.53;;;6.75;;
47545;SDS011;50104;52.002;4.688;2023-11-19T00:16:37;53.20;;;7.43;;
47545;SDS011;50104;52.002;4.688;2023-11-19T00:21:38;37.83;;;6.40;;
47545;SDS011;50104;52.002;4.688;2023-11-19T00:26:41;47.22;;;6.82;;
47545;SDS011;50104;52.002;4.688;2023-11-19T00:31:42;46.70;;;6.45;;
47545;SDS011;50104;52.002;4.688;2023-11-19T00:36:43;59.50;;;7.70;;
47545;SDS011;50104;52.002;4.688;2023-11-19T00:41:45;45.50;;;5.07;;
47545;SDS011;50104;52.002;4.688;2023-11-19T00:46:46;49.97;;;5.95;;
47545;SDS011;50104;52.002;4.688;2023-11-19T00:51:47;44.03;;;6.97;;
47545;SDS011;50104;52.002;4.688;2023-11-19T00:56:47;49.03;;;6.63;;
47545;SDS011;50104;52.002;4.688;2023-11-19T01:01:48;61.40;;;7.13;;
47545;SDS011;50104;52.002;4.688;2023-11-19T01:06:51;48.60;;;6.32;;
47545;SDS011;50104;52.002;4.688;2023-11-19T01:11:51;54.72;;;6.78;;
47545;SDS011;50104;52.002;4.688;2023-11-19T01:16:53;46.67;;;6.97;;
47545;SDS011;50104;52.002;4.688;2023-11-19T01:21:55;50.00;;;7.03;;
47545;SDS011;50104;52.002;4.688;2023-11-19T01:26:56;38.28;;;5.50;;
47545;SDS011;50104;52.002;4.688;2023-11-19T01:31:57;46.78;;;7.13;;
47545;SDS011;50104;52.002;4.688;2023-11-19T01:36:58;47.33;;;6.18;;
47545;SDS011;50104;52.002;4.688;2023-11-19T01:41:59;45.28;;;6.43;;
47545;SDS011;50104;52.002;4.688;2023-11-19T01:47:00;46.28;;;6.85;;
47545;SDS011;50104;52.002;4.688;2023-11-19T01:52:02;51.10;;;6.38;;
47545;SDS011;50104;52.002;4.688;2023-11-19T01:57:03;46.75;;;6.82;;
47545;SDS011;50104;52.002;4.688;2023-11-19T02:02:05;45.28;;;6.82;;
47545;SDS011;50104;52.002;4.688;2023-11-19T02:07:06;45.40;;;8.02;;
47545;SDS011;50104;52.002;4.688;2023-11-19T02:12:08;43.55;;;5.85;;
47545;SDS011;50104;52.002;4.688;2023-11-19T02:17:29;48.70;;;6.47;;
47545;SDS011;50104;52.002;4.688;2023-11-19T02:22:37;53.75;;;7.13;;
47545;SDS011;50104;52.002;4.688;2023-11-19T02:27:46;37.15;;;6.72;;
47545;SDS011;50104;52.002;4.688;2023-11-19T02:32:55;54.70;;;8.63;;
47545;SDS011;50104;52.002;4.688;2023-11-19T02:38:05;45.95;;;7.32;;
47545;SDS011;50104;52.002;4.688;2023-11-19T02:43:07;50.60;;;7.63;;
47545;SDS011;50104;52.002;4.688;2023-11-19T02:48:08;44.80;;;7.85;;
47545;SDS011;50104;52.002;4.688;2023-11-19T02:53:10;42.30;;;6.72;;
47545;SDS011;50104;52.002;4.688;2023-11-19T02:58:11;46.13;;;8.95;;
47545;SDS011;50104;52.002;4.688;2023-11-19T03:03:20;49.55;;;6.63;;
47545;SDS011;50104;52.002;4.688;2023-11-19T03:08:22;37.53;;;6.22;;
47545;SDS011;50104;52.002;4.688;2023-11-19T03:13:23;49.47;;;6.47;;
47545;SDS011;50104;52.002;4.688;2023-11-19T03:18:24;43.08;;;6.90;;
47545;SDS011;50104;52.002;4.688;2023-11-19T03:23:25;45.78;;;7.05;;
47545;SDS011;50104;52.002;4.688;2023-11-19T03:28:29;45.50;;;6.50;;
47545;SDS011;50104;52.002;4.688;2023-11-19T03:33:31;35.85;;;5.28;;
47545;SDS011;50104;52.002;4.688;2023-11-19T03:38:31;47.97;;;6.47;;
47545;SDS011;50104;52.002;4.688;2023-11-19T03:43:32;37.88;;;6.13;;
47545;SDS011;50104;52.002;4.688;2023-11-19T03:48:33;45.55;;;7.03;;
47545;SDS011;50104;52.002;4.688;2023-11-19T03:53:34;48.60;;;8.15;;
47545;SDS011;50104;52.002;4.688;2023-11-19T03:58:35;43.20;;;6.50;;
47545;SDS011;50104;52.002;4.688;2023-11-19T04:03:36;36.42;;;6.38;;
47545;SDS011;50104;52.002;4.688;2023-11-19T04:08:37;35.85;;;7.43;;
47545;SDS011;50104;52.002;4.688;2023-11-19T04:13:38;44.75;;;7.32;;
47545;SDS011;50104;52.002;4.688;2023-11-19T04:18:39;49.70;;;6.97;;
47545;SDS011;50104;52.002;4.688;2023-11-19T04:23:39;46.83;;;7.53;;
47545;SDS011;50104;52.002;4.688;2023-11-19T04:28:40;35.92;;;6.18;;
47545;SDS011;50104;52.002;4.688;2023-11-19T04:33:42;35.83;;;6.18;;
47545;SDS011;50104;52.002;4.688;2023-11-19T04:38:43;45.75;;;7.07;;
47545;SDS011;50104;52.002;4.688;2023-11-19T04:43:44;30.33;;;5.25;;
47545;SDS011;50104;52.002;4.688;2023-11-19T04:48:45;37.15;;;7.10;;
47545;SDS011;50104;52.002;4.688;2023-11-19T04:53:46;31.15;;;6.20;;
47545;SDS011;50104;52.002;4.688;2023-11-19T04:58:46;37.15;;;6.68;;
47545;SDS011;50104;52.002;4.688;2023-11-19T05:03:47;45.72;;;7.28;;
47545;SDS011;50104;52.002;4.688;2023-11-19T05:08:48;40.95;;;6.72;;
47545;SDS011;50104;52.002;4.688;2023-11-19T05:13:49;38.55;;;6.18;;
47545;SDS011;50104;52.002;4.688;2023-11-19T05:18:50;37.00;;;6.47;;
47545;SDS011;50104;52.002;4.688;2023-11-19T05:23:51;39.22;;;7.05;;
47545;SDS011;50104;52.002;4.688;2023-11-19T05:28:52;47.50;;;8.05;;
47545;SDS011;50104;52.002;4.688;2023-11-19T05:33:52;44.30;;;7.10;;
47545;SDS011;50104;52.002;4.688;2023-11-19T05:38:53;43.88;;;6.43;;
47545;SDS011;50104;52.002;4.688;2023-11-19T05:43:54;50.63;;;7.03;;
47545;SDS011;50104;52.002;4.688;2023-11-19T05:48:55;46.75;;;6.90;;
47545;SDS011;50104;52.002;4.688;2023-11-19T05:53:57;39.05;;;6.32;;
47545;SDS011;50104;52.002;4.688;2023-11-19T05:58:58;33.80;;;6.10;;
47545;SDS011;50104;52.002;4.688;2023-11-19T06:04:03;41.25;;;7.45;;
47545;SDS011;50104;52.002;4.688;2023-11-19T06:09:04;33.88;;;5.10;;
47545;SDS011;50104;52.002;4.688;2023-11-19T06:14:06;42.30;;;6.03;;
47545;SDS011;50104;52.002;4.688;2023-11-19T06:19:07;38.75;;;5.85;;
47545;SDS011;50104;52.002;4.688;2023-11-19T06:24:08;42.17;;;6.40;;
47545;SDS011;50104;52.002;4.688;2023-11-19T06:29:09;39.75;;;5.60;;
47545;SDS011;50104;52.002;4.688;2023-11-19T06:34:10;45.35;;;6.03;;
47545;SDS011;50104;52.002;4.688;2023-11-19T06:39:11;38.13;;;5.95;;
47545;SDS011;50104;52.002;4.688;2023-11-19T06:44:12;36.45;;;6.28;;
47545;SDS011;50104;52.002;4.688;2023-11-19T06:49:13;38.85;;;6.50;;
47545;SDS011;50104;52.002;4.688;2023-11-19T06:54:14;39.40;;;5.57;;
47545;SDS011;50104;52.002;4.688;2023-11-19T07:05:01;34.30;;;6.55;;
47545;SDS011;50104;52.002;4.688;2023-11-19T07:10:04;35.53;;;5.55;;
47545;SDS011;50104;52.002;4.688;2023-11-19T07:15:09;44.40;;;7.80;;
47545;SDS011;50104;52.002;4.688;2023-11-19T07:20:10;34.05;;;6.32;;
47545;SDS011;50104;52.002;4.688;2023-11-19T07:25:15;39.42;;;6.95;;
47545;SDS011;50104;52.002;4.688;2023-11-19T07:30:16;35.83;;;6.93;;
47545;SDS011;50104;52.002;4.688;2023-11-19T07:35:18;49.53;;;6.68;;
47545;SDS011;50104;52.002;4.688;2023-11-19T07:40:19;44.72;;;6.45;;
47545;SDS011;50104;52.002;4.688;2023-11-19T07:45:20;39.38;;;5.80;;
47545;SDS011;50104;52.002;4.688;2023-11-19T07:50:21;42.05;;;5.72;;
47545;SDS011;50104;52.002;4.688;2023-11-19T07:55:22;40.53;;;7.03;;
47545;SDS011;50104;52.002;4.688;2023-11-19T08:00:23;45.80;;;5.88;;
47545;SDS011;50104;52.002;4.688;2023-11-19T08:05:23;42.75;;;6.65;;
47545;SDS011;50104;52.002;4.688;2023-11-19T08:10:27;40.30;;;5.45;;
47545;SDS011;50104;52.002;4.688;2023-11-19T08:15:28;38.80;;;6.72;;
47545;SDS011;50104;52.002;4.688;2023-11-19T08:20:29;36.85;;;5.90;;
47545;SDS011;50104;52.002;4.688;2023-11-19T08:25:30;40.20;;;6.07;;
47545;SDS011;50104;52.002;4.688;2023-11-19T08:30:33;41.15;;;5.55;;
47545;SDS011;50104;52.002;4.688;2023-11-19T08:35:34;32.85;;;5.60;;
47545;SDS011;50104;52.002;4.688;2023-11-19T08:40:35;28.15;;;4.93;;
47545;SDS011;50104;52.002;4.688;2023-11-19T08:45:37;39.30;;;6.20;;
47545;SDS011;50104;52.002;4.688;2023-11-19T08:50:37;46.38;;;5.97;;
47545;SDS011;50104;52.002;4.688;2023-11-19T08:55:38;35.20;;;6.72;;
47545;SDS011;50104;52.002;4.688;2023-11-19T09:00:39;55.17;;;8.70;;
47545;SDS011;50104;52.002;4.688;2023-11-19T09:05:40;38.15;;;6.20;;
47545;SDS011;50104;52.002;4.688;2023-11-19T09:10:41;52.38;;;5.57;;
47545;SDS011;50104;52.002;4.688;2023-11-19T09:15:42;49.83;;;6.70;;
47545;SDS011;50104;52.002;4.688;2023-11-19T09:20:43;44.80;;;7.10;;
47545;SDS011;50104;52.002;4.688;2023-11-19T09:25:44;36.92;;;6.15;;
47545;SDS011;50104;52.002;4.688;2023-11-19T09:30:45;40.95;;;6.80;;
47545;SDS011;50104;52.002;4.688;2023-11-19T09:35:45;40.15;;;5.40;;
47545;SDS011;50104;52.002;4.688;2023-11-19T09:40:46;37.00;;;6.45;;
47545;SDS011;50104;52.002;4.688;2023-11-19T09:45:48;34.05;;;6.00;;
47545;SDS011;50104;52.002;4.688;2023-11-19T09:50:50;27.50;;;5.38;;
47545;SDS011;50104;52.002;4.688;2023-11-19T09:55:52;35.08;;;5.45;;
47545;SDS011;50104;52.002;4.688;2023-11-19T10:00:54;34.30;;;5.18;;
47545;SDS011;50104;52.002;4.688;2023-11-19T10:05:55;39.00;;;7.55;;
47545;SDS011;50104;52.002;4.688;2023-11-19T10:10:56;28.13;;;4.45;;
47545;SDS011;50104;52.002;4.688;2023-11-19T10:15:57;28.13;;;6.50;;
47545;SDS011;50104;52.002;4.688;2023-11-19T10:20:58;34.55;;;4.80;;
47545;SDS011;50104;52.002;4.688;2023-11-19T10:26:05;33.47;;;6.38;;
47545;SDS011;50104;52.002;4.688;2023-11-19T10:31:07;39.63;;;6.93;;
47545;SDS011;50104;52.002;4.688;2023-11-19T10:36:07;29.17;;;5.07;;
47545;SDS011;50104;52.002;4.688;2023-11-19T10:41:08;29.17;;;4.50;;
47545;SDS011;50104;52.002;4.688;2023-11-19T10:46:10;35.28;;;6.65;;
47545;SDS011;50104;52.002;4.688;2023-11-19T10:51:12;32.40;;;5.20;;
47545;SDS011;50104;52.002;4.688;2023-11-19T10:56:22;32.20;;;5.65;;
47545;SDS011;50104;52.002;4.688;2023-11-19T11:01:32;27.02;;;6.43;;
47545;SDS011;50104;52.002;4.688;2023-11-19T11:06:45;29.27;;;5.72;;
47545;SDS011;50104;52.002;4.688;2023-11-19T11:11:47;43.78;;;6.05;;
47545;SDS011;50104;52.002;4.688;2023-11-19T11:16:50;39.05;;;6.07;;
47545;SDS011;50104;52.002;4.688;2023-11-19T11:21:53;43.67;;;7.03;;
47545;SDS011;50104;52.002;4.688;2023-11-19T11:38:07;29.13;;;4.65;;
47545;SDS011;50104;52.002;4.688;2023-11-19T11:48:46;28.73;;;4.85;;
47545;SDS011;50104;52.002;4.688;2023-11-19T11:53:50;26.35;;;5.13;;
47545;SDS011;50104;52.002;4.688;2023-11-19T11:58:52;26.48;;;5.47;;
47545;SDS011;50104;52.002;4.688;2023-11-19T12:03:55;22.02;;;4.32;;
47545;SDS011;50104;52.002;4.688;2023-11-19T12:09:00;21.30;;;4.43;;
47545;SDS011;50104;52.002;4.688;2023-11-19T12:14:02;20.08;;;4.38;;
47545;SDS011;50104;52.002;4.688;2023-11-19T12:19:03;23.55;;;5.18;;
47545;SDS011;50104;52.002;4.688;2023-11-19T12:24:06;26.23;;;5.03;;
47545;SDS011;50104;52.002;4.688;2023-11-19T12:29:08;25.02;;;3.42;;
47545;SDS011;50104;52.002;4.688;2023-11-19T12:34:09;24.20;;;4.03;;
47545;SDS011;50104;52.002;4.688;2023-11-19T12:44:54;25.95;;;4.30;;
47545;SDS011;50104;52.002;4.688;2023-11-19T12:49:56;31.38;;;5.28;;
47545;SDS011;50104;52.002;4.688;2023-11-19T12:54:58;33.83;;;5.35;;
47545;SDS011;50104;52.002;4.688;2023-11-19T12:59:59;31.60;;;4.28;;
47545;SDS011;50104;52.002;4.688;2023-11-19T13:05:19;37.00;;;5.05;;
47545;SDS011;50104;52.002;4.688;2023-11-19T13:10:33;30.20;;;4.22;;
47545;SDS011;50104;52.002;4.688;2023-11-19T13:15:51;32.00;;;5.88;;
47545;SDS011;50104;52.002;4.688;2023-11-19T13:20:51;28.85;;;4.60;;
47545;SDS011;50104;52.002;4.688;2023-11-19T13:25:52;36.33;;;5.55;;
47545;SDS011;50104;52.002;4.688;2023-11-19T13:30:53;25.90;;;6.18;;
47545;SDS011;50104;52.002;4.688;2023-11-19T13:35:54;39.78;;;5.68;;
47545;SDS011;50104;52.002;4.688;2023-11-19T13:40:55;29.13;;;5.07;;
47545;SDS011;50104;52.002;4.688;2023-11-19T13:45:56;30.17;;;4.38;;
47545;SDS011;50104;52.002;4.688;2023-11-19T13:50:58;41.30;;;4.38;;
47545;SDS011;50104;52.002;4.688;2023-11-19T13:55:59;29.38;;;4.38;;
47545;SDS011;50104;52.002;4.688;2023-11-19T14:01:00;22.63;;;4.85;;
47545;SDS011;50104;52.002;4.688;2023-11-19T14:06:02;22.23;;;3.83;;
47545;SDS011;50104;52.002;4.688;2023-11-19T14:11:03;28.75;;;4.70;;
47545;SDS011;50104;52.002;4.688;2023-11-19T14:16:05;37.03;;;6.25;;
47545;SDS011;50104;52.002;4.688;2023-11-19T14:21:09;25.70;;;4.28;;
47545;SDS011;50104;52.002;4.688;2023-11-19T14:26:10;28.58;;;5.07;;
47545;SDS011;50104;52.002;4.688;2023-11-19T14:31:11;33.72;;;5.32;;
47545;SDS011;50104;52.002;4.688;2023-11-19T14:36:11;26.08;;;4.53;;
47545;SDS011;50104;52.002;4.688;2023-11-19T14:41:12;31.02;;;4.68;;
47545;SDS011;50104;52.002;4.688;2023-11-19T14:46:13;16.15;;;4.07;;
47545;SDS011;50104;52.002;4.688;2023-11-19T14:51:14;25.70;;;4.35;;
47545;SDS011;50104;52.002;4.688;2023-11-19T14:56:15;27.30;;;5.55;;
47545;SDS011;50104;52.002;4.688;2023-11-19T15:01:16;31.20;;;3.70;;
47545;SDS011;50104;52.002;4.688;2023-11-19T15:06:17;26.88;;;4.30;;
47545;SDS011;50104;52.002;4.688;2023-11-19T15:11:18;28.33;;;4.82;;
47545;SDS011;50104;52.002;4.688;2023-11-19T15:16:19;25.08;;;4.30;;
47545;SDS011;50104;52.002;4.688;2023-11-19T15:21:26;32.50;;;5.97;;
47545;SDS011;50104;52.002;4.688;2023-11-19T15:26:29;31.25;;;4.72;;
47545;SDS011;50104;52.002;4.688;2023-11-19T15:31:30;25.05;;;4.93;;
47545;SDS011;50104;52.002;4.688;2023-11-19T15:36:31;29.95;;;4.10;;
47545;SDS011;50104;52.002;4.688;2023-11-19T15:41:34;25.23;;;4.28;;
47545;SDS011;50104;52.002;4.688;2023-11-19T15:46:35;23.60;;;3.25;;
47545;SDS011;50104;52.002;4.688;2023-11-19T15:51:36;26.45;;;5.43;;
47545;SDS011;50104;52.002;4.688;2023-11-19T15:56:37;22.40;;;3.75;;
47545;SDS011;50104;52.002;4.688;2023-11-19T16:01:38;30.27;;;5.72;;
47545;SDS011;50104;52.002;4.688;2023-11-19T16:06:39;18.30;;;3.70;;
47545;SDS011;50104;52.002;4.688;2023-11-19T16:11:40;28.95;;;5.60;;
47545;SDS011;50104;52.002;4.688;2023-11-19T16:16:43;27.55;;;5.35;;
47545;SDS011;50104;52.002;4.688;2023-11-19T16:21:45;26.73;;;4.18;;
47545;SDS011;50104;52.002;4.688;2023-11-19T16:26:46;25.33;;;4.07;;
47545;SDS011;50104;52.002;4.688;2023-11-19T16:31:47;30.13;;;4.25;;
47545;SDS011;50104;52.002;4.688;2023-11-19T16:36:49;27.55;;;5.22;;
47545;SDS011;50104;52.002;4.688;2023-11-19T16:41:50;27.70;;;4.85;;
47545;SDS011;50104;52.002;4.688;2023-11-19T16:46:51;26.48;;;4.45;;
47545;SDS011;50104;52.002;4.688;2023-11-19T16:51:52;28.75;;;5.20;;
47545;SDS011;50104;52.002;4.688;2023-11-19T16:56:53;22.90;;;4.20;;
47545;SDS011;50104;52.002;4.688;2023-11-19T17:01:54;22.60;;;4.97;;
47545;SDS011;50104;52.002;4.688;2023-11-19T17:06:55;28.17;;;4.10;;
47545;SDS011;50104;52.002;4.688;2023-11-19T17:11:56;26.42;;;3.72;;
47545;SDS011;50104;52.002;4.688;2023-11-19T17:17:05;19.70;;;4.07;;
47545;SDS011;50104;52.002;4.688;2023-11-19T17:22:05;28.08;;;5.85;;
47545;SDS011;50104;52.002;4.688;2023-11-19T17:27:06;26.88;;;4.40;;
47545;SDS011;50104;52.002;4.688;2023-11-19T17:32:07;29.45;;;4.35;;
47545;SDS011;50104;52.002;4.688;2023-11-19T17:37:08;27.48;;;4.47;;
47545;SDS011;50104;52.002;4.688;2023-11-19T17:42:09;26.40;;;4.78;;
47545;SDS011;50104;52.002;4.688;2023-11-19T17:47:10;26.13;;;4.82;;
47545;SDS011;50104;52.002;4.688;2023-11-19T17:52:12;29.55;;;5.97;;
47545;SDS011;50104;52.002;4.688;2023-11-19T17:57:13;36.83;;;4.47;;
47545;SDS011;50104;52.002;4.688;2023-11-19T18:02:15;40.00;;;4.68;;
47545;SDS011;50104;52.002;4.688;2023-11-19T18:07:16;23.55;;;5.68;;
47545;SDS011;50104;52.002;4.688;2023-11-19T18:12:17;39.17;;;5.75;;
47545;SDS011;50104;52.002;4.688;2023-11-19T18:17:18;24.77;;;3.97;;
47545;SDS011;50104;52.002;4.688;2023-11-19T18:22:19;22.90;;;4.18;;
47545;SDS011;50104;52.002;4.688;2023-11-19T18:27:20;28.00;;;5.80;;
47545;SDS011;50104;52.002;4.688;2023-11-19T18:32:20;27.73;;;4.75;;
47545;SDS011;50104;52.002;4.688;2023-11-19T18:37:21;39.50;;;5.65;;
47545;SDS011;50104;52.002;4.688;2023-11-19T18:42:22;26.48;;;4.43;;
47545;SDS011;50104;52.002;4.688;2023-11-19T18:47:23;30.67;;;5.15;;
47545;SDS011;50104;52.002;4.688;2023-11-19T18:52:24;32.67;;;5.00;;
47545;SDS011;50104;52.002;4.688;2023-11-19T18:57:25;35.70;;;4.85;;
47545;SDS011;50104;52.002;4.688;2023-11-19T19:02:26;33.63;;;4.35;;
47545;SDS011;50104;52.002;4.688;2023-11-19T19:07:26;40.67;;;6.03;;
47545;SDS011;50104;52.002;4.688;2023-11-19T19:12:28;41.65;;;5.30;;
47545;SDS011;50104;52.002;4.688;2023-11-19T19:17:29;35.55;;;5.13;;
47545;SDS011;50104;52.002;4.688;2023-11-19T19:22:29;29.83;;;5.85;;
47545;SDS011;50104;52.002;4.688;2023-11-19T19:27:30;29.85;;;4.70;;
47545;SDS011;50104;52.002;4.688;2023-11-19T19:32:31;26.55;;;4.88;;
47545;SDS011;50104;52.002;4.688;2023-11-19T19:37:32;31.10;;;5.22;;
47545;SDS011;50104;52.002;4.688;2023-11-19T19:42:33;33.90;;;6.00;;
47545;SDS011;50104;52.002;4.688;2023-11-19T19:47:34;28.20;;;3.78;;
47545;SDS011;50104;52.002;4.688;2023-11-19T19:52:37;28.90;;;4.55;;
47545;SDS011;50104;52.002;4.688;2023-11-19T19:57:38;29.23;;;5.13;;
47545;SDS011;50104;52.002;4.688;2023-11-19T20:02:42;25.42;;;4.70;;
47545;SDS011;50104;52.002;4.688;2023-11-19T20:07:44;25.83;;;4.10;;
47545;SDS011;50104;52.002;4.688;2023-11-19T20:12:47;28.65;;;5.40;;
47545;SDS011;50104;52.002;4.688;2023-11-19T20:17:48;26.35;;;4.40;;
47545;SDS011;50104;52.002;4.688;2023-11-19T20:22:50;23.27;;;4.93;;
47545;SDS011;50104;52.002;4.688;2023-11-19T20:27:51;34.33;;;5.75;;
47545;SDS011;50104;52.002;4.688;2023-11-19T20:32:52;34.25;;;4.47;;
47545;SDS011;50104;52.002;4.688;2023-11-19T20:37:54;24.58;;;4.85;;
47545;SDS011;50104;52.002;4.688;2023-11-19T20:42:55;27.90;;;4.35;;
47545;SDS011;50104;52.002;4.688;2023-11-19T20:47:56;23.20;;;3.67;;
47545;SDS011;50104;52.002;4.688;2023-11-19T20:52:58;26.13;;;3.92;;
47545;SDS011;50104;52.002;4.688;2023-11-19T20:57:59;22.88;;;4.07;;
47545;SDS011;50104;52.002;4.688;2023-11-19T21:03:00;31.08;;;5.13;;
47545;SDS011;50104;52.002;4.688;2023-11-19T21:08:01;24.55;;;3.95;;
47545;SDS011;50104;52.002;4.688;2023-11-19T21:13:02;18.75;;;3.30;;
47545;SDS011;50104;52.002;4.688;2023-11-19T21:18:03;18.23;;;3.45;;
47545;SDS011;50104;52.002;4.688;2023-11-19T21:23:05;19.30;;;4.10;;
47545;SDS011;50104;52.002;4.688;2023-11-19T21:28:06;22.05;;;3.40;;
47545;SDS011;50104;52.002;4.688;2023-11-19T21:33:06;19.83;;;3.70;;
47545;SDS011;50104;52.002;4.688;2023-11-19T21:38:08;24.85;;;3.78;;
47545;SDS011;50104;52.002;4.688;2023-11-19T21:43:09;21.38;;;4.80;;
47545;SDS011;50104;52.002;4.688;2023-11-19T21:48:11;18.65;;;3.90;;
47545;SDS011;50104;52.002;4.688;2023-11-19T21:53:12;21.60;;;3.22;;
47545;SDS011;50104;52.002;4.688;2023-11-19T21:58:15;17.60;;;3.10;;
47545;SDS011;50104;52.002;4.688;2023-11-19T22:03:16;16.02;;;3.97;;
47545;SDS011;50104;52.002;4.688;2023-11-19T22:08:17;19.50;;;3.58;;
47545;SDS011;50104;52.002;4.688;2023-11-19T22:13:18;21.38;;;3.80;;
47545;SDS011;50104;52.002;4.688;2023-11-19T22:18:19;27.10;;;3.30;;
47545;SDS011;50104;52.002;4.688;2023-11-19T22:23:19;15.25;;;2.63;;
47545;SDS011;50104;52.002;4.688;2023-11-19T22:28:20;16.95;;;3.85;;
47545;SDS011;50104;52.002;4.688;2023-11-19T22:33:21;18.60;;;2.83;;
47545;SDS011;50104;52.002;4.688;2023-11-19T22:38:22;12.02;;;2.72;;
47545;SDS011;50104;52.002;4.688;2023-11-19T22:43:23;16.98;;;2.33;;
47545;SDS011;50104;52.002;4.688;2023-11-19T22:48:24;15.88;;;2.13;;
47545;SDS011;50104;52.002;4.688;2023-11-19T22:53:24;11.18;;;2.28;;
47545;SDS011;50104;52.002;4.688;2023-11-19T22:58:25;13.82;;;2.28;;
47545;SDS011;50104;52.002;4.688;2023-11-19T23:03:26;12.43;;;2.30;;
47545;SDS011;50104;52.002;4.688;2023-11-19T23:08:27;20.42;;;3.50;;
47545;SDS011;50104;52.002;4.688;2023-11-19T23:13:28;10.23;;;2.55;;
47545;SDS011;50104;52.002;4.688;2023-11-19T23:18:31;18.45;;;3.30;;
47545;SDS011;50104;52.002;4.688;2023-11-19T23:23:32;10.60;;;1.67;;
47545;SDS011;50104;52.002;4.688;2023-11-19T23:28:33;18.77;;;2.50;;
47545;SDS011;50104;52.002;4.688;2023-11-19T23:33:34;15.20;;;2.75;;
47545;SDS011;50104;52.002;4.688;2023-11-19T23:38:35;11.02;;;2.30;;
47545;SDS011;50104;52.002;4.688;2023-11-19T23:43:36;12.23;;;3.03;;
47545;SDS011;50104;52.002;4.688;2023-11-19T23:48:37;17.48;;;2.50;;
47545;SDS011;50104;52.002;4.688;2023-11-19T23:53:38;18.88;;;4.10;;
47545;SDS011;50104;52.002;4.688;2023-11-19T23:58:39;13.38;;;2.78;;
